createdAt,value
2023-04-09T00:02:56.284Z,102202.60
2023-04-09T00:08:01.590Z,102206.63
2023-04-09T00:13:06.920Z,102206.77
2023-04-09T00:18:12.284Z,102206.15
2023-04-09T00:23:17.660Z,102206.70
2023-04-09T00:28:23.052Z,102204.71
2023-04-09T00:33:28.319Z,102201.36
2023-04-09T00:38:33.823Z,102195.25
2023-04-09T00:43:39.094Z,102195.48
2023-04-09T00:48:45.043Z,102193.31
2023-04-09T00:53:50.717Z,102191.05
2023-04-09T00:58:58.647Z,102189.83
2023-04-09T01:04:04.557Z,102186.20
2023-04-09T01:09:18.035Z,102187.54
2023-04-09T01:14:30.259Z,102187.29
2023-04-09T01:19:48.940Z,102185.75
2023-04-09T01:25:04.807Z,102184.65
2023-04-09T01:30:12.600Z,102187.84
2023-04-09T01:35:18.784Z,102186.13
2023-04-09T01:40:24.373Z,102186.86
2023-04-09T01:45:29.774Z,102186.36
2023-04-09T01:50:35.643Z,102196.06
2023-04-09T01:55:41.161Z,102200.38
2023-04-09T02:00:48.937Z,102199.79
2023-04-09T02:06:00.789Z,102206.21
2023-04-09T02:11:09.494Z,102205.86
2023-04-09T02:16:16.157Z,102216.95
2023-04-09T02:21:21.923Z,102214.73
2023-04-09T02:26:27.488Z,102209.06
2023-04-09T02:31:32.833Z,102218.16
2023-04-09T02:36:38.261Z,102219.40
2023-04-09T02:41:44.107Z,102218.84
2023-04-09T02:46:50.479Z,102217.71
2023-04-09T02:51:56.010Z,102219.73
2023-04-09T02:57:01.443Z,102221.24
2023-04-09T03:02:06.863Z,102218.31
2023-04-09T03:07:12.274Z,102219.49
2023-04-09T03:12:17.703Z,102219.89
2023-04-09T03:17:25.807Z,102207.52
2023-04-09T03:22:35.450Z,102210.04
2023-04-09T03:27:40.703Z,102204.14
2023-04-09T03:32:46.100Z,102202.50
2023-04-09T03:37:52.557Z,102195.38
2023-04-09T03:42:57.952Z,102195.67
2023-04-09T03:48:03.433Z,102195.08
2023-04-09T03:53:08.887Z,102197.66
2023-04-09T03:58:14.653Z,102197.48
2023-04-09T04:03:20.062Z,102199.10
2023-04-09T04:08:25.522Z,102198.91
2023-04-09T04:13:30.940Z,102204.83
2023-04-09T04:18:36.665Z,102207.79
2023-04-09T04:23:42.202Z,102206.53
2023-04-09T04:28:47.511Z,102204.92
2023-04-09T04:33:52.867Z,102206.55
2023-04-09T04:38:58.419Z,102213.55
2023-04-09T04:44:03.741Z,102208.74
2023-04-09T04:49:09.051Z,102217.75
2023-04-09T04:54:14.349Z,102213.27
2023-04-09T04:59:19.741Z,102217.30
2023-04-09T05:04:25.058Z,102219.48
2023-04-09T05:09:30.717Z,102222.86
2023-04-09T05:14:36.331Z,102219.92
2023-04-09T05:19:41.683Z,102217.79
2023-04-09T05:24:47.057Z,102218.86
2023-04-09T05:29:52.355Z,102219.41
2023-04-09T05:34:57.749Z,102223.96
2023-04-09T05:40:03.528Z,102225.26
2023-04-09T05:45:10.852Z,102223.58
2023-04-09T05:50:16.500Z,102225.58
2023-04-09T05:55:21.868Z,102233.73
2023-04-09T06:00:27.607Z,102233.70
2023-04-09T06:05:33.224Z,102236.02
2023-04-09T06:10:39.910Z,102235.86
2023-04-09T06:15:46.359Z,102232.64
2023-04-09T06:21:00.865Z,102234.88
2023-04-09T06:26:06.494Z,102233.51
2023-04-09T06:31:12.239Z,102242.77
2023-04-09T06:36:17.773Z,102241.78
2023-04-09T06:41:23.774Z,102246.55
2023-04-09T06:46:29.461Z,102245.66
2023-04-09T06:51:34.854Z,102246.70
2023-04-09T06:56:40.342Z,102249.56
2023-04-09T07:01:47.780Z,102254.35
2023-04-09T07:06:54.809Z,102258.76
2023-04-09T07:12:00.556Z,102265.11
2023-04-09T07:17:06.054Z,102263.80
2023-04-09T07:22:11.470Z,102263.81
2023-04-09T07:27:16.738Z,102266.48
2023-04-09T07:32:22.327Z,102267.34
2023-04-09T07:37:27.815Z,102270.23
2023-04-09T07:42:33.181Z,102274.56
2023-04-09T07:47:38.949Z,102269.51
2023-04-09T07:52:44.620Z,102268.48
2023-04-09T07:57:51.753Z,102272.81
2023-04-09T08:02:57.502Z,102276.03
2023-04-09T08:08:03.627Z,102283.77
2023-04-09T08:13:10.198Z,102283.42
2023-04-09T08:18:17.321Z,102284.48
2023-04-09T08:23:23.210Z,102291.95
2023-04-09T08:28:28.733Z,102295.98
2023-04-09T08:33:33.982Z,102293.33
2023-04-09T08:38:39.631Z,102293.11
2023-04-09T08:43:57.156Z,102291.75
2023-04-09T09:16:35.934Z,102286.82
2023-04-09T09:44:34.906Z,102287.45
2023-04-09T09:49:40.326Z,102286.87
2023-04-09T09:54:52.213Z,102284.26
2023-04-09T10:00:01.376Z,102280.50
2023-04-09T10:05:08.694Z,102272.98
2023-04-09T10:10:14.088Z,102271.26
2023-04-09T10:15:19.850Z,102271.55
2023-04-09T10:20:29.744Z,102271.48
2023-04-09T10:25:35.653Z,102267.19
2023-04-09T10:30:40.925Z,102266.19
2023-04-09T10:35:48.767Z,102267.98
2023-04-09T10:40:54.764Z,102267.92
2023-04-09T10:46:00.763Z,102267.59
2023-04-09T10:51:06.613Z,102270.66
2023-04-09T10:56:17.338Z,102266.67
2023-04-09T11:01:24.290Z,102266.19
2023-04-09T11:06:31.091Z,102258.91
2023-04-09T11:11:36.981Z,102260.42
2023-04-09T11:16:43.018Z,102254.20
2023-04-09T11:21:49.015Z,102255.67
2023-04-09T11:26:56.811Z,102250.38
2023-04-09T11:32:02.669Z,102250.61
2023-04-09T11:37:14.064Z,102251.55
2023-04-09T11:42:19.524Z,102253.20
2023-04-09T11:47:24.986Z,102242.20
2023-04-09T11:52:32.549Z,102236.98
2023-04-09T11:57:46.059Z,102232.41
2023-04-09T12:02:58.610Z,102227.87
2023-04-09T12:08:07.309Z,102224.60
2023-04-09T12:13:13.646Z,102220.56
2023-04-09T12:18:21.506Z,102218.13
2023-04-09T12:23:26.869Z,102220.30
2023-04-09T12:28:32.441Z,102217.39
2023-04-09T12:33:38.967Z,102218.34
2023-04-09T12:38:44.328Z,102216.91
2023-04-09T12:43:49.840Z,102210.16
2023-04-09T12:48:55.880Z,102203.52
2023-04-09T12:54:03.989Z,102201.23
2023-04-09T12:59:09.667Z,102193.88
2023-04-09T13:04:15.497Z,102190.36
2023-04-09T13:09:21.084Z,102185.06
2023-04-09T13:14:26.593Z,102182.51
2023-04-09T13:19:32.384Z,102175.67
2023-04-09T13:24:38.155Z,102178.46
2023-04-09T13:29:43.611Z,102173.63
2023-04-09T13:34:49.371Z,102166.77
2023-04-09T13:39:55.341Z,102166.08
2023-04-09T13:45:00.984Z,102156.01
2023-04-09T13:50:10.236Z,102153.54
2023-04-09T13:55:15.765Z,102151.71
2023-04-09T14:00:21.165Z,102146.47
2023-04-09T14:05:26.512Z,102146.95
2023-04-09T14:10:31.940Z,102142.23
2023-04-09T14:15:37.488Z,102138.36
2023-04-09T14:20:43.231Z,102136.57
2023-04-09T14:25:48.543Z,102137.55
2023-04-09T14:30:54.310Z,102129.51
2023-04-09T14:35:59.755Z,102124.05
2023-04-09T14:41:06.750Z,102125.27
2023-04-09T14:46:12.147Z,102117.67
2023-04-09T14:51:17.743Z,102112.13
2023-04-09T14:56:23.250Z,102109.14
2023-04-09T15:01:28.743Z,102104.11
2023-04-09T15:06:34.246Z,102099.10
2023-04-09T15:11:40.148Z,102102.58
2023-04-09T15:16:45.463Z,102103.77
2023-04-09T15:21:51.076Z,102103.27
2023-04-09T15:26:56.976Z,102099.30
2023-04-09T15:32:02.534Z,102102.48
2023-04-09T15:37:08.003Z,102097.15
2023-04-09T15:42:14.796Z,102098.15
2023-04-09T15:47:20.372Z,102095.81
2023-04-09T15:52:26.656Z,102087.56
2023-04-09T15:57:32.311Z,102094.11
2023-04-09T16:02:38.861Z,102096.16
2023-04-09T16:07:44.390Z,102095.20
2023-04-09T16:12:49.864Z,102095.82
2023-04-09T16:17:55.364Z,102096.77
2023-04-09T16:23:01.241Z,102098.38
2023-04-09T16:28:06.865Z,102100.34
2023-04-09T16:33:12.862Z,102100.41
2023-04-09T16:38:18.225Z,102098.21
2023-04-09T16:43:24.197Z,102103.23
2023-04-09T16:48:29.469Z,102099.60
2023-04-09T16:53:38.756Z,102095.42
2023-04-09T16:58:45.936Z,102098.58
2023-04-09T17:03:51.518Z,102094.27
2023-04-09T17:08:57.417Z,102095.20
2023-04-09T17:14:03.175Z,102091.77
2023-04-09T17:19:08.916Z,102092.24
2023-04-09T17:24:14.361Z,102097.31
2023-04-09T17:29:19.609Z,102100.89
2023-04-09T17:34:24.946Z,102102.23
2023-04-09T17:39:30.378Z,102103.30
2023-04-09T17:44:36.363Z,102107.91
2023-04-09T17:49:41.871Z,102102.16
2023-04-09T17:54:47.261Z,102101.89
2023-04-09T17:59:52.834Z,102103.96
2023-04-09T18:05:04.524Z,102103.53
2023-04-09T18:10:09.391Z,102104.10
2023-04-09T18:15:16.468Z,102103.19
2023-04-09T18:20:21.919Z,102102.86
2023-04-09T18:25:28.665Z,102104.02
2023-04-09T18:30:36.106Z,102102.00
2023-04-09T18:35:41.507Z,102105.93
2023-04-09T18:40:46.932Z,102112.69
2023-04-09T18:45:52.544Z,102118.13
2023-04-09T18:50:58.999Z,102122.62
2023-04-09T18:56:04.596Z,102126.70
2023-04-09T19:01:13.487Z,102130.85
2023-04-09T19:06:19.892Z,102132.09
2023-04-09T19:11:25.984Z,102133.77
2023-04-09T19:16:31.612Z,102134.61
2023-04-09T19:21:37.105Z,102147.29
2023-04-09T19:26:42.393Z,102153.35
2023-04-09T19:31:47.977Z,102149.96
2023-04-09T19:36:53.515Z,102145.55
2023-04-09T19:41:58.773Z,102151.36
2023-04-09T19:47:07.102Z,102151.33
2023-04-09T19:52:12.518Z,102143.85
2023-04-09T19:57:17.938Z,102150.27
2023-04-09T20:02:24.009Z,102149.82
2023-04-09T20:07:49.957Z,102152.66
2023-04-09T20:13:14.419Z,102150.91
2023-04-09T20:18:40.231Z,102150.20
2023-04-09T20:24:05.886Z,102150.42
2023-04-09T20:29:31.654Z,102159.27
2023-04-09T20:34:49.596Z,102159.27
2023-04-09T20:40:08.519Z,102158.65
2023-04-09T20:45:34.433Z,102154.47
2023-04-09T20:51:00.236Z,102148.42
2023-04-09T20:56:34.499Z,102140.95
2023-04-09T21:02:00.356Z,102144.44
2023-04-09T21:07:26.115Z,102148.69
2023-04-09T21:12:51.841Z,102145.38
2023-04-09T21:18:17.452Z,102144.31
2023-04-09T21:23:43.202Z,102142.40
2023-04-09T21:29:08.801Z,102135.71
2023-04-09T21:34:34.576Z,102127.67
2023-04-09T21:40:00.211Z,102128.48
2023-04-09T21:45:19.575Z,102126.31
2023-04-09T21:50:45.542Z,102127.66
2023-04-09T21:56:11.265Z,102131.91
2023-04-09T22:01:37.212Z,102139.64
2023-04-09T22:07:05.176Z,102141.11
2023-04-09T22:12:30.937Z,102139.64
2023-04-09T22:17:56.735Z,102140.36
2023-04-09T22:23:22.418Z,102144.06
2023-04-09T22:28:48.182Z,102147.58
2023-04-09T22:34:20.577Z,102147.71
2023-04-09T22:39:39.709Z,102144.84
2023-04-09T22:45:05.394Z,102146.88
2023-04-09T22:50:31.934Z,102150.38
2023-04-09T22:55:57.448Z,102163.09
2023-04-09T23:01:21.825Z,102163.89
2023-04-09T23:06:48.039Z,102158.34
2023-04-09T23:12:13.745Z,102153.48
2023-04-09T23:17:39.467Z,102148.36
2023-04-09T23:23:05.556Z,102149.34
2023-04-09T23:28:31.201Z,102151.73
2023-04-09T23:33:56.846Z,102154.23
2023-04-09T23:39:22.762Z,102153.70
2023-04-09T23:44:48.415Z,102144.86
2023-04-09T23:50:14.298Z,102147.88
2023-04-09T23:55:39.980Z,102141.59
